createdAt,value
2023-03-05T00:01:41.625Z,81.67
2023-03-05T00:04:14.426Z,79.95
2023-03-05T00:06:43.075Z,79.79
2023-03-05T00:09:12.107Z,77.32
2023-03-05T00:11:40.767Z,77.74
2023-03-05T00:14:09.140Z,79.59
2023-03-05T00:16:37.441Z,79.87
2023-03-05T00:19:06.431Z,80.09
2023-03-05T00:21:40.440Z,77.44
2023-03-05T00:24:12.693Z,79.11
2023-03-05T00:26:41.457Z,78.47
2023-03-05T00:29:10.604Z,76.35
2023-03-05T00:31:39.907Z,76.88
2023-03-05T00:34:11.206Z,77.96
2023-03-05T00:36:44.951Z,78.81
2023-03-05T00:39:13.941Z,78.49
2023-03-05T00:41:42.310Z,77.48
2023-03-05T00:44:11.101Z,75.30
2023-03-05T00:46:39.634Z,74.78
2023-03-05T00:49:08.370Z,76.04
2023-03-05T00:51:36.788Z,74.10
2023-03-05T00:54:05.827Z,74.06
2023-03-05T00:56:34.225Z,74.07
2023-03-05T00:59:02.639Z,74.77
2023-03-05T01:01:31.538Z,73.56
2023-03-05T01:04:02.025Z,75.59
2023-03-05T01:06:30.953Z,73.16
2023-03-05T01:09:00.457Z,74.58
2023-03-05T01:11:29.001Z,73.00
2023-03-05T01:13:57.410Z,72.55
2023-03-05T01:16:25.732Z,73.07
2023-03-05T01:18:54.224Z,73.62
2023-03-05T01:21:23.019Z,72.09
2023-03-05T01:23:51.428Z,72.13
2023-03-05T01:26:20.030Z,71.82
2023-03-05T01:28:48.563Z,73.25
2023-03-05T01:31:17.093Z,72.59
2023-03-05T01:33:46.022Z,71.33
2023-03-05T01:36:17.723Z,70.99
2023-03-05T01:38:47.927Z,70.71
2023-03-05T01:41:17.575Z,70.08
2023-03-05T01:43:48.085Z,71.05
2023-03-05T01:46:25.255Z,70.35
2023-03-05T01:49:14.122Z,69.87
2023-03-05T01:52:04.119Z,68.97
2023-03-05T01:54:46.217Z,68.76
2023-03-05T01:57:21.141Z,69.15
2023-03-05T01:59:54.769Z,70.25
2023-03-05T02:02:23.360Z,68.94
2023-03-05T02:05:04.697Z,68.01
2023-03-05T02:07:33.580Z,67.74
2023-03-05T02:10:01.897Z,68.61
2023-03-05T02:12:30.280Z,67.73
2023-03-05T02:15:00.341Z,68.51
2023-03-05T02:17:29.659Z,67.53
2023-03-05T02:20:06.709Z,66.53
2023-03-05T02:22:35.143Z,66.57
2023-03-05T02:25:03.493Z,66.94
2023-03-05T02:27:37.579Z,67.18
2023-03-05T02:30:06.388Z,67.23
2023-03-05T02:32:34.691Z,66.83
2023-03-05T02:35:03.196Z,65.49
2023-03-05T02:37:31.511Z,64.94
2023-03-05T02:39:59.816Z,64.68
2023-03-05T02:42:28.183Z,65.18
2023-03-05T02:44:56.570Z,64.55
2023-03-05T02:47:24.869Z,63.72
2023-03-05T02:49:53.214Z,63.83
2023-03-05T02:52:24.177Z,62.61
2023-03-05T02:54:53.400Z,63.00
2023-03-05T02:57:22.021Z,63.06
2023-03-05T02:59:50.357Z,63.53
2023-03-05T03:02:18.864Z,63.07
2023-03-05T03:04:47.473Z,62.25
2023-03-05T03:07:16.512Z,62.90
2023-03-05T03:09:45.019Z,62.50
2023-03-05T03:12:13.768Z,61.98
2023-03-05T03:14:44.235Z,62.61
2023-03-05T03:17:18.175Z,62.26
2023-03-05T03:19:47.248Z,62.53
2023-03-05T03:22:17.335Z,62.30
2023-03-05T03:24:46.117Z,61.94
2023-03-05T03:27:14.481Z,60.60
2023-03-05T03:29:42.807Z,60.59
2023-03-05T03:32:11.172Z,60.60
2023-03-05T03:34:39.584Z,60.31
2023-03-05T03:37:08.337Z,60.65
2023-03-05T03:39:36.622Z,59.88
2023-03-05T03:42:05.166Z,59.85
2023-03-05T03:44:33.450Z,58.89
2023-03-05T03:47:01.810Z,59.10
2023-03-05T03:49:30.173Z,59.65
2023-03-05T03:51:59.242Z,58.59
2023-03-05T03:54:27.587Z,58.49
2023-03-05T03:56:55.895Z,57.71
2023-03-05T03:59:24.642Z,57.11
2023-03-05T04:01:53.040Z,55.43
2023-03-05T04:04:21.367Z,56.38
2023-03-05T04:06:49.747Z,55.69
2023-03-05T04:09:18.094Z,56.57
2023-03-05T04:11:46.396Z,56.37
2023-03-05T04:14:14.721Z,56.45
2023-03-05T04:16:43.343Z,55.63
2023-03-05T04:19:11.957Z,56.83
2023-03-05T04:21:41.041Z,56.62
2023-03-05T04:24:10.009Z,53.20
2023-03-05T04:26:38.362Z,53.52
2023-03-05T04:29:06.674Z,54.79
2023-03-05T04:31:35.137Z,54.19
2023-03-05T04:34:03.516Z,54.68
2023-03-05T04:36:31.830Z,53.80
2023-03-05T04:39:00.166Z,54.89
2023-03-05T04:41:28.445Z,54.83
2023-03-05T04:43:56.735Z,55.50
2023-03-05T04:46:25.153Z,52.91
2023-03-05T04:48:53.511Z,52.92
2023-03-05T04:51:21.832Z,53.15
2023-03-05T04:53:50.281Z,50.99
2023-03-05T04:56:18.697Z,52.10
2023-03-05T04:58:47.028Z,50.07
2023-03-05T05:01:15.392Z,50.11
2023-03-05T05:03:43.680Z,49.89
2023-03-05T05:06:12.726Z,51.63
2023-03-05T05:08:41.141Z,49.41
2023-03-05T05:11:13.851Z,52.66
2023-03-05T05:13:42.250Z,51.34
2023-03-05T05:16:11.153Z,50.90
2023-03-05T05:18:39.869Z,50.41
2023-03-05T05:21:12.948Z,49.47
2023-03-05T05:23:41.693Z,48.42
2023-03-05T05:26:10.380Z,50.41
2023-03-05T05:28:39.427Z,49.13
2023-03-05T05:31:16.535Z,50.58
2023-03-05T05:33:46.108Z,51.54
2023-03-05T05:36:17.789Z,49.15
2023-03-05T05:38:46.949Z,50.02
2023-03-05T05:41:17.374Z,50.00
2023-03-05T05:43:45.953Z,50.70
2023-03-05T05:46:18.451Z,47.52
2023-03-05T05:48:47.784Z,49.37
2023-03-05T05:51:19.100Z,48.86
2023-03-05T05:53:48.145Z,48.00
2023-03-05T05:56:17.802Z,46.98
2023-03-05T05:58:48.604Z,47.17
2023-03-05T06:01:27.376Z,46.67
2023-03-05T06:03:56.149Z,48.73
2023-03-05T06:06:26.978Z,48.77
2023-03-05T06:08:56.037Z,46.18
2023-03-05T06:11:24.791Z,47.79
2023-03-05T06:13:53.366Z,46.88
2023-03-05T06:16:25.238Z,48.80
2023-03-05T06:18:54.572Z,46.51
2023-03-05T06:21:24.683Z,46.33
2023-03-05T06:23:53.436Z,47.19
2023-03-05T06:26:23.440Z,46.35
2023-03-05T06:28:52.538Z,44.14
2023-03-05T06:31:23.459Z,46.11
2023-03-05T06:33:52.423Z,46.58
2023-03-05T06:36:22.540Z,44.68
2023-03-05T06:38:53.180Z,47.01
2023-03-05T06:41:30.415Z,46.09
2023-03-05T06:44:00.426Z,45.29
2023-03-05T06:46:31.966Z,46.44
2023-03-05T06:49:03.009Z,46.70
2023-03-05T06:51:34.061Z,46.14
2023-03-05T06:54:05.706Z,43.24
2023-03-05T06:56:36.256Z,44.18
2023-03-05T06:59:05.050Z,43.53
2023-03-05T07:01:33.426Z,44.05
2023-03-05T07:04:03.909Z,45.07
2023-03-05T07:06:37.518Z,45.44
2023-03-05T07:09:08.089Z,46.07
2023-03-05T07:11:36.538Z,46.69
2023-03-05T07:14:05.692Z,45.94
2023-03-05T07:16:35.976Z,46.41
2023-03-05T07:19:06.437Z,43.89
2023-03-05T07:21:38.346Z,46.04
2023-03-05T07:24:09.146Z,44.94
2023-03-05T07:26:37.691Z,46.58
2023-03-05T07:29:06.261Z,44.34
2023-03-05T07:31:34.643Z,45.57
2023-03-05T07:34:04.455Z,45.71
2023-03-05T07:36:32.831Z,43.44
2023-03-05T07:39:01.187Z,46.02
2023-03-05T07:41:29.721Z,45.56
2023-03-05T07:43:58.025Z,45.24
2023-03-05T07:46:46.652Z,45.18
2023-03-05T07:49:21.040Z,43.59
2023-03-05T07:51:49.723Z,44.92
2023-03-05T07:54:23.457Z,45.03
2023-03-05T07:57:06.741Z,44.84
2023-03-05T07:59:42.579Z,44.03
2023-03-05T08:02:17.876Z,44.18
2023-03-05T08:04:56.214Z,46.14
2023-03-05T08:07:25.399Z,45.21
2023-03-05T08:09:55.022Z,46.13
2023-03-05T08:12:31.552Z,44.31
2023-03-05T08:15:03.918Z,45.19
2023-03-05T08:17:32.209Z,45.20
2023-03-05T08:20:01.209Z,46.08
2023-03-05T08:22:29.532Z,45.77
2023-03-05T08:24:57.867Z,46.04
2023-03-05T08:27:26.202Z,44.36
2023-03-05T08:29:54.714Z,44.96
2023-03-05T08:32:23.110Z,43.85
2023-03-05T08:34:51.461Z,46.02
2023-03-05T08:37:19.757Z,44.14
2023-03-05T08:39:48.263Z,44.40
2023-03-05T08:42:16.575Z,44.89
2023-03-05T08:44:44.872Z,45.21
2023-03-05T08:47:13.187Z,45.31
2023-03-05T08:49:41.595Z,45.49
2023-03-05T08:52:10.038Z,45.10
2023-03-05T08:54:39.176Z,44.16
2023-03-05T08:57:07.517Z,46.52
2023-03-05T08:59:35.864Z,46.27
2023-03-05T09:02:04.375Z,46.05
2023-03-05T09:04:32.716Z,45.02
2023-03-05T09:07:01.005Z,45.79
2023-03-05T09:09:30.988Z,47.11
2023-03-05T09:12:03.491Z,45.12
2023-03-05T09:14:31.972Z,45.58
2023-03-05T09:17:00.268Z,46.63
2023-03-05T09:19:28.653Z,45.77
2023-03-05T09:21:57.205Z,45.16
2023-03-05T09:24:25.839Z,44.33
2023-03-05T09:26:54.152Z,44.16
2023-03-05T09:29:22.436Z,44.43
2023-03-05T09:31:52.824Z,45.08
2023-03-05T09:34:21.373Z,45.42
2023-03-05T09:36:50.077Z,45.47
2023-03-05T09:39:18.861Z,46.49
2023-03-05T09:42:10.139Z,47.31
2023-03-05T09:44:47.556Z,48.17
2023-03-05T09:47:18.866Z,47.82
2023-03-05T09:50:11.481Z,46.76
2023-03-05T09:52:56.471Z,47.07
2023-03-05T09:55:41.180Z,45.20
2023-03-05T09:58:17.380Z,46.14
2023-03-05T10:00:50.646Z,46.87
2023-03-05T10:03:23.720Z,47.53
2023-03-05T10:06:00.665Z,46.88
2023-03-05T10:08:53.185Z,46.92
2023-03-05T10:11:47.003Z,47.53
2023-03-05T10:14:23.056Z,47.79
2023-03-05T10:17:00.729Z,48.28
2023-03-05T10:19:47.694Z,48.14
2023-03-05T10:22:26.203Z,48.50
2023-03-05T10:25:21.158Z,48.40
2023-03-05T10:27:54.175Z,49.06
2023-03-05T10:30:52.641Z,49.15
2023-03-05T10:33:35.687Z,49.50
2023-03-05T10:36:12.873Z,50.02
2023-03-05T10:38:50.148Z,50.41
2023-03-05T10:41:46.128Z,50.59
2023-03-05T10:44:34.230Z,51.70
2023-03-05T10:47:04.142Z,53.00
2023-03-05T10:49:39.286Z,52.96
2023-03-05T10:52:18.600Z,53.11
2023-03-05T10:54:47.110Z,54.52
2023-03-05T10:57:28.505Z,54.16
2023-03-05T11:00:02.850Z,53.95
2023-03-05T11:02:31.351Z,54.10
2023-03-05T11:05:00.030Z,54.72
2023-03-05T11:07:28.275Z,54.59
2023-03-05T11:10:05.331Z,54.67
2023-03-05T11:12:39.196Z,55.17
2023-03-05T11:15:27.323Z,56.01
2023-03-05T11:18:09.232Z,56.00
2023-03-05T11:20:38.623Z,56.88
2023-03-05T11:23:16.094Z,56.13
2023-03-05T11:25:58.201Z,56.56
2023-03-05T11:28:39.088Z,56.87
2023-03-05T11:31:25.298Z,58.56
2023-03-05T11:34:05.980Z,58.26
2023-03-05T11:36:40.135Z,59.69
2023-03-05T11:39:11.591Z,60.50
2023-03-05T11:42:06.119Z,59.60
2023-03-05T11:44:54.353Z,60.06
2023-03-05T11:47:46.722Z,61.47
2023-03-05T11:50:17.614Z,60.39
2023-03-05T11:53:10.317Z,59.92
2023-03-05T11:55:41.951Z,60.82
2023-03-05T11:58:19.410Z,62.21
2023-03-05T12:00:49.610Z,62.01
2023-03-05T12:03:23.300Z,63.80
2023-03-05T12:06:03.156Z,64.65
2023-03-05T12:08:36.848Z,65.21
2023-03-05T12:11:24.845Z,65.37
2023-03-05T12:14:36.817Z,64.70
2023-03-05T12:17:09.187Z,64.82
2023-03-05T12:19:42.754Z,64.24
2023-03-05T12:22:25.269Z,64.19
2023-03-05T12:24:53.981Z,64.46
2023-03-05T12:27:38.006Z,65.03
2023-03-05T12:30:06.862Z,66.03
2023-03-05T12:32:36.242Z,66.08
2023-03-05T12:35:07.339Z,65.74
2023-03-05T12:37:35.600Z,65.47
2023-03-05T12:40:26.921Z,65.16
2023-03-05T12:42:57.564Z,65.34
2023-03-05T12:45:38.532Z,65.29
2023-03-05T12:48:11.749Z,65.30
2023-03-05T12:53:22.371Z,67.00
2023-03-05T12:56:02.594Z,68.39
2023-03-05T12:58:48.152Z,69.02
2023-03-05T13:01:22.755Z,69.64
2023-03-05T13:04:02.805Z,69.94
2023-03-05T13:06:36.864Z,71.17
2023-03-05T13:09:19.709Z,71.56
2023-03-05T13:11:51.301Z,70.39
2023-03-05T13:14:40.656Z,71.05
2023-03-05T13:17:30.456Z,71.56
2023-03-05T13:20:00.271Z,71.53
2023-03-05T13:22:29.102Z,70.94
2023-03-05T13:25:21.614Z,70.92
2023-03-05T13:27:50.066Z,71.03
2023-03-05T13:30:27.714Z,70.49
2023-03-05T13:33:03.850Z,69.11
2023-03-05T13:35:36.376Z,68.54
2023-03-05T13:38:04.765Z,69.24
2023-03-05T13:40:33.867Z,69.55
2023-03-05T13:43:14.632Z,69.65
2023-03-05T13:45:45.550Z,71.00
2023-03-05T13:48:21.092Z,72.44
2023-03-05T13:50:57.207Z,73.31
2023-03-05T13:53:29.191Z,73.58
2023-03-05T13:56:10.030Z,72.18
2023-03-05T13:58:54.503Z,73.17
2023-03-05T14:01:30.699Z,72.91
2023-03-05T14:04:07.472Z,72.24
2023-03-05T14:06:44.222Z,73.79
2023-03-05T14:09:26.056Z,74.57
2023-03-05T14:12:06.428Z,74.06
2023-03-05T14:14:40.143Z,74.54
2023-03-05T14:17:42.782Z,69.59
2023-03-05T14:20:25.895Z,73.15
2023-03-05T14:22:59.866Z,74.38
2023-03-05T14:25:40.525Z,71.29
2023-03-05T14:28:17.816Z,73.32
2023-03-05T14:30:55.035Z,69.97
2023-03-05T14:33:33.059Z,71.88
2023-03-05T14:36:03.341Z,72.38
2023-03-05T14:38:35.016Z,73.36
2023-03-05T14:41:21.737Z,72.10
2023-03-05T14:43:50.188Z,73.72
2023-03-05T14:46:18.677Z,74.26
2023-03-05T14:48:47.896Z,75.48
2023-03-05T14:51:16.331Z,73.37
2023-03-05T14:53:47.644Z,70.28
2023-03-05T14:56:29.114Z,70.09
2023-03-05T14:59:00.494Z,70.74
2023-03-05T15:01:28.872Z,68.51
2023-03-05T15:03:57.229Z,69.98
2023-03-05T15:06:34.211Z,67.68
2023-03-05T15:09:03.434Z,67.43
2023-03-05T15:11:32.076Z,66.33
2023-03-05T15:14:00.490Z,65.78
2023-03-05T15:16:28.817Z,64.40
2023-03-05T15:18:57.160Z,64.42
2023-03-05T15:21:25.519Z,64.23
2023-03-05T15:23:53.821Z,63.95
2023-03-05T15:26:22.727Z,63.44
2023-03-05T15:28:51.179Z,63.67
2023-03-05T15:31:19.587Z,63.65
2023-03-05T15:33:47.947Z,63.71
2023-03-05T15:36:16.213Z,63.73
2023-03-05T15:38:44.687Z,63.33
2023-03-05T15:41:12.990Z,63.26
2023-03-05T15:43:41.597Z,63.56
2023-03-05T15:46:10.024Z,63.52
2023-03-05T15:48:38.420Z,63.81
2023-03-05T15:51:09.964Z,64.01
2023-03-05T15:53:38.312Z,64.30
2023-03-05T15:56:07.022Z,65.31
2023-03-05T15:58:35.398Z,65.89
2023-03-05T16:01:03.723Z,65.74
2023-03-05T16:03:32.149Z,66.75
2023-03-05T16:06:00.519Z,66.54
2023-03-05T16:08:29.463Z,66.15
2023-03-05T16:10:57.775Z,66.50
2023-03-05T16:13:29.508Z,67.80
2023-03-05T16:15:58.942Z,68.46
2023-03-05T16:18:27.615Z,67.21
2023-03-05T16:20:56.576Z,67.95
2023-03-05T16:23:24.968Z,67.84
2023-03-05T16:25:53.586Z,66.32
2023-03-05T16:28:21.896Z,65.55
2023-03-05T16:30:59.630Z,65.53
2023-03-05T16:33:28.075Z,66.00
2023-03-05T16:36:20.619Z,65.28
2023-03-05T16:38:53.784Z,66.14
2023-03-05T16:41:24.535Z,67.89
2023-03-05T16:43:54.944Z,67.55
2023-03-05T16:46:25.273Z,68.22
2023-03-05T16:48:54.033Z,68.12
2023-03-05T16:51:22.968Z,67.24
2023-03-05T16:53:51.611Z,66.68
2023-03-05T16:56:19.993Z,66.21
2023-03-05T16:58:49.229Z,66.21
2023-03-05T17:01:22.359Z,65.82
2023-03-05T17:03:51.574Z,65.89
2023-03-05T17:06:22.640Z,66.90
2023-03-05T17:08:52.336Z,67.89
2023-03-05T17:11:21.421Z,67.32
2023-03-05T17:13:50.240Z,67.86
2023-03-05T17:16:20.149Z,66.38
2023-03-05T17:18:49.626Z,69.54
2023-03-05T17:21:18.173Z,69.02
2023-03-05T17:23:46.514Z,68.63
2023-03-05T17:26:19.921Z,68.69
2023-03-05T17:28:48.274Z,69.15
2023-03-05T17:31:17.033Z,69.16
2023-03-05T17:33:45.498Z,70.47
2023-03-05T17:36:20.843Z,69.93
2023-03-05T17:38:50.231Z,69.78
2023-03-05T17:41:20.005Z,69.65
2023-03-05T17:43:48.918Z,70.10
2023-03-05T17:46:17.914Z,69.16
2023-03-05T17:48:46.258Z,70.03
2023-03-05T17:51:17.597Z,70.62
2023-03-05T17:53:46.702Z,68.74
2023-03-05T17:56:23.376Z,69.45
2023-03-05T17:58:52.189Z,68.04
2023-03-05T18:01:25.747Z,69.41
2023-03-05T18:03:54.234Z,67.88
2023-03-05T18:06:22.666Z,67.50
2023-03-05T18:08:51.412Z,67.29
2023-03-05T18:11:20.149Z,66.62
2023-03-05T18:13:48.546Z,66.92
2023-03-05T18:16:17.993Z,66.76
2023-03-05T18:18:46.667Z,67.12
2023-03-05T18:21:23.314Z,66.76
2023-03-05T18:23:52.344Z,67.18
2023-03-05T18:26:20.676Z,66.93
2023-03-05T18:28:49.061Z,66.96
2023-03-05T18:31:17.389Z,67.24
2023-03-05T18:33:46.303Z,68.49
2023-03-05T18:36:15.945Z,70.80
2023-03-05T18:38:44.952Z,70.89
2023-03-05T18:41:21.708Z,70.14
2023-03-05T18:43:51.403Z,70.42
2023-03-05T18:46:19.876Z,70.97
2023-03-05T18:48:49.093Z,70.89
2023-03-05T18:51:20.035Z,71.32
2023-03-05T18:53:48.655Z,71.92
2023-03-05T18:56:16.961Z,71.86
2023-03-05T18:58:45.883Z,72.67
2023-03-05T19:01:14.695Z,72.23
2023-03-05T19:03:42.997Z,72.07
2023-03-05T19:06:11.416Z,72.43
2023-03-05T19:08:39.791Z,72.52
2023-03-05T19:11:17.440Z,72.29
2023-03-05T19:13:51.279Z,72.14
2023-03-05T19:16:30.060Z,72.71
2023-03-05T19:19:24.313Z,71.41
2023-03-05T19:21:56.006Z,71.25
2023-03-05T19:24:25.923Z,71.95
2023-03-05T19:26:56.752Z,71.06
2023-03-05T19:29:26.927Z,72.02
2023-03-05T19:31:55.762Z,72.13
2023-03-05T19:34:24.123Z,70.70
2023-03-05T19:36:52.490Z,70.59
2023-03-05T19:39:20.889Z,70.73
2023-03-05T19:41:49.193Z,70.97
2023-03-05T19:44:17.565Z,72.67
2023-03-05T19:46:46.159Z,72.80
2023-03-05T19:49:14.495Z,70.77
2023-03-05T19:51:44.755Z,71.10
2023-03-05T19:54:14.485Z,70.97
2023-03-05T19:56:44.549Z,72.92
2023-03-05T19:59:12.950Z,72.77
2023-03-05T20:01:41.307Z,72.38
2023-03-05T20:04:09.642Z,71.49
2023-03-05T20:06:37.964Z,71.70
2023-03-05T20:09:08.013Z,71.53
2023-03-05T20:11:37.142Z,72.56
2023-03-05T20:14:05.784Z,73.73
2023-03-05T20:16:36.280Z,73.27
2023-03-05T20:19:06.191Z,73.24
2023-03-05T20:21:40.097Z,73.14
2023-03-05T20:24:17.479Z,73.08
2023-03-05T20:26:47.790Z,73.83
2023-03-05T20:29:18.061Z,73.57
2023-03-05T20:31:47.409Z,73.61
2023-03-05T20:34:18.977Z,73.69
2023-03-05T20:36:47.731Z,74.77
2023-03-05T20:39:16.699Z,74.86
2023-03-05T20:41:45.226Z,74.30
2023-03-05T20:44:14.631Z,74.90
2023-03-05T20:47:13.669Z,74.91
2023-03-05T20:49:41.971Z,75.93
2023-03-05T20:52:10.295Z,76.14
2023-03-05T20:54:38.691Z,76.74
2023-03-05T20:57:06.983Z,76.84
2023-03-05T20:59:35.287Z,77.16
2023-03-05T21:02:03.563Z,77.13
2023-03-05T21:04:31.875Z,78.38
2023-03-05T21:07:00.393Z,78.61
2023-03-05T21:09:29.808Z,78.46
2023-03-05T21:11:58.100Z,78.54
2023-03-05T21:14:26.452Z,77.39
2023-03-05T21:16:54.758Z,77.60
2023-03-05T21:19:23.139Z,77.72
2023-03-05T21:21:51.857Z,78.50
2023-03-05T21:24:55.190Z,77.77
2023-03-05T21:27:23.546Z,78.45
2023-03-05T21:29:51.875Z,79.74
2023-03-05T21:32:20.799Z,78.92
2023-03-05T21:34:49.126Z,78.61
2023-03-05T21:37:17.398Z,78.57
2023-03-05T21:39:45.861Z,78.65
2023-03-05T21:42:14.516Z,79.10
2023-03-05T21:44:42.868Z,78.33
2023-03-05T21:47:11.580Z,78.97
2023-03-05T21:49:39.890Z,77.82
2023-03-05T21:52:13.098Z,78.38
2023-03-05T21:54:42.054Z,79.21
2023-03-05T21:57:12.581Z,78.82
2023-03-05T21:59:42.538Z,79.43
2023-03-05T22:02:20.214Z,80.07
2023-03-05T22:04:49.526Z,79.71
2023-03-05T22:07:19.280Z,80.65
2023-03-05T22:09:48.130Z,80.80
2023-03-05T22:12:47.350Z,81.28
2023-03-05T22:15:15.643Z,82.02
2023-03-05T22:17:43.949Z,82.32
2023-03-05T22:20:13.120Z,82.26
2023-03-05T22:22:42.612Z,82.62
2023-03-05T22:25:15.011Z,82.48
2023-03-05T22:27:45.127Z,82.39
2023-03-05T22:30:14.432Z,82.55
2023-03-05T22:32:42.773Z,82.29
2023-03-05T22:35:14.358Z,82.48
2023-03-05T22:37:43.474Z,82.74
2023-03-05T22:40:16.952Z,82.71
2023-03-05T22:42:46.072Z,82.91
2023-03-05T22:45:17.821Z,82.51
2023-03-05T22:47:50.768Z,83.11
2023-03-05T22:50:19.506Z,84.14
2023-03-05T22:52:47.944Z,84.01
2023-03-05T22:55:17.651Z,84.52
2023-03-05T22:57:46.574Z,84.53
2023-03-05T23:00:18.852Z,84.82
2023-03-05T23:02:48.008Z,85.05
2023-03-05T23:05:16.408Z,85.96
2023-03-05T23:07:45.804Z,85.85
2023-03-05T23:10:27.356Z,85.42
2023-03-05T23:12:57.827Z,85.12
2023-03-05T23:15:33.742Z,84.97
2023-03-05T23:18:02.871Z,85.35
2023-03-05T23:20:33.690Z,85.67
2023-03-05T23:23:03.630Z,86.30
2023-03-05T23:25:34.558Z,85.78
2023-03-05T23:28:04.026Z,85.42
2023-03-05T23:30:35.428Z,86.21
2023-03-05T23:33:05.675Z,86.72
2023-03-05T23:35:40.279Z,87.08
2023-03-05T23:38:12.821Z,87.32
2023-03-05T23:40:47.389Z,87.08
2023-03-05T23:43:18.053Z,86.93
2023-03-05T23:45:49.023Z,86.60
2023-03-05T23:48:19.208Z,86.36
2023-03-05T23:50:48.983Z,85.90
2023-03-05T23:53:32.181Z,86.49
2023-03-05T23:56:00.553Z,87.85
2023-03-05T23:58:28.998Z,87.26
